Main page


Airports :

Coningsby, England

RAF Coningsby

latitude: 53-05N, longitude: 000-10W, elevation: 7 m

Current weather observation

The report was made 51 minutes ago, at 16:50 UTC
Wind 12 kt from the North/Northeast
Temperature 7°C
Humidity 66%
Pressure 1031 hPa
Visibility 10 km or more
Few clouds at a height of 2000 ft
Broken clouds at a height of 3500 ft

METAR: EGXC 201650Z 02012KT 9999 FEW020 BKN035 07/01 Q1031 BLU TEMPO SCT020 WHT

Time: 17:41 (17:41 UTC)


The report was made 1 hour and 2 minutes ago, at 16:39 UTC
Forecast valid from 20 at 18 UTC to 21 at 12 UTC
Wind 8 kt from the North
Visibility 10 km or more
Scattered clouds at a height of 3000 ft
Probability 30% :
from 20 at 18 UTC to 20 at 19 UTC
Scattered clouds at a height of 2000 ft
light rain showers
Probability 40%
from 21 at 02 UTC to 21 at 08 UTC
Visibility: 6000 m

TAF: EGXC 201639Z 2018/2112 01008KT 9999 SCT030 PROB30 TEMPO 2018/2019 -SHRA SCT020 PROB40 2102/2108 6000 BR

Weather observations and forecasts of more than 4000 airports (METAR and TAF reports).

The available stations are represented by yellow and red dots on the map.

Hover mouse over dot to see the name of the station.

Then click to see weather observations and forecasts.

To change the map : click on the green buttons with a black cross to zoom in, on the green button with a dash to zoom out, or on the green arrows for adjacent maps.